createdAt,value
2022-10-23T00:00:19.167Z,60.11
2022-10-23T00:02:52.922Z,59.43
2022-10-23T00:05:26.541Z,59.25
2022-10-23T00:08:00.009Z,59.62
2022-10-23T00:10:32.349Z,59.56
2022-10-23T00:13:04.746Z,59.60
2022-10-23T00:15:37.800Z,58.76
2022-10-23T00:18:10.332Z,59.38
2022-10-23T00:20:42.652Z,60.44
2022-10-23T00:23:16.455Z,58.86
2022-10-23T00:25:49.031Z,60.01
2022-10-23T00:28:21.442Z,61.24
2022-10-23T00:30:54.435Z,61.34
2022-10-23T00:33:26.914Z,62.51
2022-10-23T00:35:59.409Z,63.12
2022-10-23T00:38:31.903Z,62.67
2022-10-23T00:41:05.325Z,62.25
2022-10-23T00:43:57.442Z,62.13
2022-10-23T00:46:31.042Z,61.04
2022-10-23T00:49:05.169Z,61.13
2022-10-23T00:51:42.843Z,61.89
2022-10-23T00:54:25.684Z,62.56
2022-10-23T00:57:01.947Z,62.84
2022-10-23T00:59:35.303Z,62.52
2022-10-23T01:02:08.986Z,63.62
2022-10-23T01:04:41.624Z,63.35
2022-10-23T01:07:19.873Z,64.86
2022-10-23T01:09:59.043Z,65.15
2022-10-23T01:12:38.058Z,65.17
2022-10-23T01:15:16.797Z,64.73
2022-10-23T01:17:55.143Z,65.78
2022-10-23T01:20:41.896Z,66.23
2022-10-23T01:23:27.358Z,67.08
2022-10-23T01:26:14.902Z,66.81
2022-10-23T01:28:51.943Z,65.69
2022-10-23T01:31:33.462Z,65.52
2022-10-23T01:34:12.663Z,67.08
2022-10-23T01:36:50.586Z,66.87
2022-10-23T01:39:27.199Z,67.33
2022-10-23T01:42:07.390Z,67.76
2022-10-23T01:44:44.595Z,68.22
2022-10-23T01:50:05.938Z,67.54
2022-10-23T01:52:38.884Z,67.99
2022-10-23T01:55:13.236Z,68.32
2022-10-23T01:57:48.912Z,68.31
2022-10-23T02:00:22.690Z,68.53
2022-10-23T02:02:58.494Z,69.17
2022-10-23T02:05:54.059Z,68.55
2022-10-23T02:08:26.899Z,68.58
2022-10-23T02:11:06.747Z,69.23
2022-10-23T02:13:44.763Z,68.77
2022-10-23T02:16:30.328Z,68.05
2022-10-23T02:19:12.616Z,69.03
2022-10-23T02:21:52.230Z,68.65
2022-10-23T02:24:31.397Z,68.99
2022-10-23T02:27:11.418Z,68.53
2022-10-23T02:29:48.241Z,68.39
2022-10-23T02:32:24.598Z,68.12
2022-10-23T02:34:57.007Z,68.13
2022-10-23T02:37:29.709Z,68.21
2022-10-23T02:40:03.287Z,68.07
2022-10-23T02:42:51.289Z,69.40
2022-10-23T02:45:30.235Z,69.29
2022-10-23T02:48:12.084Z,68.36
2022-10-23T02:50:52.267Z,69.33
2022-10-23T02:53:35.167Z,69.84
2022-10-23T02:56:14.788Z,70.13
2022-10-23T02:58:55.996Z,69.82
2022-10-23T03:01:39.327Z,70.22
2022-10-23T03:04:15.727Z,69.81
2022-10-23T03:06:50.186Z,70.95
2022-10-23T03:09:25.590Z,70.90
2022-10-23T03:11:57.985Z,70.29
2022-10-23T03:14:30.362Z,69.62
2022-10-23T03:17:03.289Z,69.58
2022-10-23T03:19:36.351Z,69.64
2022-10-23T03:22:09.881Z,70.48
2022-10-23T03:24:42.483Z,71.12
2022-10-23T03:27:15.696Z,70.61
2022-10-23T03:29:48.424Z,70.54
2022-10-23T03:32:22.239Z,70.71
2022-10-23T03:34:55.247Z,70.66
2022-10-23T03:37:28.065Z,70.58
2022-10-23T03:40:00.677Z,70.08
2022-10-23T03:42:36.122Z,70.36
2022-10-23T03:45:09.312Z,70.79
2022-10-23T03:47:42.070Z,70.75
2022-10-23T03:50:15.362Z,70.54
2022-10-23T03:52:47.757Z,70.77
2022-10-23T03:55:20.099Z,71.29
2022-10-23T03:57:52.567Z,70.88
2022-10-23T04:00:25.562Z,71.08
2022-10-23T04:02:57.944Z,70.54
2022-10-23T04:05:30.997Z,70.65
2022-10-23T04:08:04.707Z,70.61
2022-10-23T04:10:38.831Z,71.37
2022-10-23T04:13:11.242Z,71.28
2022-10-23T04:15:52.953Z,71.03
2022-10-23T04:18:25.357Z,71.00
2022-10-23T04:20:58.346Z,71.30
2022-10-23T04:23:30.754Z,71.50
2022-10-23T04:26:03.693Z,71.72
2022-10-23T04:28:37.660Z,71.82
2022-10-23T04:31:10.031Z,72.25
2022-10-23T04:33:46.126Z,72.03
2022-10-23T04:36:32.692Z,72.50
2022-10-23T04:39:13.894Z,73.29
2022-10-23T04:41:46.863Z,73.27
2022-10-23T04:44:19.594Z,73.11
2022-10-23T04:46:51.958Z,73.34
2022-10-23T04:49:24.334Z,73.13
2022-10-23T04:52:17.728Z,74.76
2022-10-23T04:55:25.730Z,76.42
2022-10-23T04:58:18.438Z,77.74
2022-10-23T05:00:51.168Z,77.28
2022-10-23T05:03:29.035Z,76.71
2022-10-23T05:06:01.437Z,74.86
2022-10-23T05:08:45.494Z,76.34
2022-10-23T05:11:40.698Z,77.31
2022-10-23T05:14:16.270Z,76.39
2022-10-23T05:16:55.438Z,76.56
2022-10-23T05:19:34.434Z,75.80
2022-10-23T05:22:06.966Z,76.44
2022-10-23T05:24:53.663Z,76.17
2022-10-23T05:27:29.614Z,78.08
2022-10-23T05:30:02.214Z,75.12
2022-10-23T05:32:39.145Z,75.87
2022-10-23T05:35:16.296Z,77.81
2022-10-23T05:37:55.509Z,76.77
2022-10-23T05:40:31.106Z,83.50
2022-10-23T05:43:09.219Z,83.19
2022-10-23T05:46:07.960Z,78.18
2022-10-23T05:48:50.032Z,81.94
2022-10-23T05:51:43.694Z,83.77
2022-10-23T05:54:35.210Z,82.06
2022-10-23T05:57:27.412Z,81.96
2022-10-23T06:00:00.128Z,80.63
2022-10-23T06:02:33.170Z,80.57
2022-10-23T06:05:15.094Z,80.25
2022-10-23T06:07:59.711Z,80.04
2022-10-23T06:10:32.139Z,79.82
2022-10-23T06:13:08.524Z,79.94
2022-10-23T06:15:42.069Z,80.17
2022-10-23T06:18:26.186Z,80.46
2022-10-23T06:21:07.583Z,80.27
2022-10-23T06:23:42.720Z,81.22
2022-10-23T06:26:29.232Z,80.82
2022-10-23T06:29:07.229Z,81.83
2022-10-23T06:31:39.798Z,80.95
2022-10-23T06:34:12.644Z,80.46
2022-10-23T06:36:45.094Z,81.27
2022-10-23T06:39:35.383Z,79.88
2022-10-23T06:42:37.013Z,79.23
2022-10-23T06:45:31.834Z,78.01
2022-10-23T06:48:26.724Z,78.42
2022-10-23T06:51:12.547Z,77.96
2022-10-23T06:53:48.270Z,77.58
2022-10-23T06:56:46.629Z,75.64
2022-10-23T06:59:19.213Z,73.75
2022-10-23T07:04:32.843Z,74.09
2022-10-23T07:07:06.889Z,74.62
2022-10-23T07:09:48.009Z,74.29
2022-10-23T07:12:27.652Z,73.34
2022-10-23T07:15:20.008Z,71.84
2022-10-23T07:17:53.175Z,70.49
2022-10-23T07:20:27.592Z,69.58
2022-10-23T07:23:00.126Z,69.72
2022-10-23T07:25:36.199Z,69.12
2022-10-23T07:28:08.690Z,68.47
2022-10-23T07:30:42.262Z,68.15
2022-10-23T07:33:17.744Z,68.11
2022-10-23T07:36:07.480Z,68.16
2022-10-23T07:38:40.051Z,68.36
2022-10-23T07:41:12.785Z,67.58
2022-10-23T07:43:46.199Z,66.63
2022-10-23T07:46:19.651Z,66.38
2022-10-23T07:48:53.761Z,66.21
2022-10-23T07:51:27.000Z,65.39
2022-10-23T07:54:04.889Z,64.41
2022-10-23T07:56:56.017Z,64.65
2022-10-23T07:59:37.228Z,63.35
2022-10-23T08:02:16.086Z,63.89
2022-10-23T08:04:50.537Z,63.75
2022-10-23T08:07:39.983Z,63.07
2022-10-23T08:10:12.487Z,62.61
2022-10-23T08:12:47.216Z,62.79
2022-10-23T08:15:20.773Z,62.81
2022-10-23T08:18:00.286Z,62.55
2022-10-23T08:20:48.345Z,62.98
2022-10-23T08:23:20.674Z,62.81
2022-10-23T08:25:58.168Z,62.50
2022-10-23T08:28:31.108Z,62.78
2022-10-23T08:31:09.911Z,62.60
2022-10-23T08:33:42.961Z,62.40
2022-10-23T08:36:18.951Z,63.47
2022-10-23T08:38:52.971Z,63.53
2022-10-23T08:41:31.067Z,63.76
2022-10-23T08:44:27.841Z,62.14
2022-10-23T08:47:05.124Z,62.19
2022-10-23T08:50:00.210Z,62.15
2022-10-23T08:52:39.403Z,61.78
2022-10-23T08:55:17.721Z,61.80
2022-10-23T08:57:57.454Z,61.97
2022-10-23T09:00:30.368Z,61.89
2022-10-23T09:03:05.083Z,61.42
2022-10-23T09:05:54.434Z,60.54
2022-10-23T09:08:43.326Z,60.67
2022-10-23T09:11:25.060Z,59.42
2022-10-23T09:14:38.950Z,59.31
2022-10-23T09:17:22.700Z,59.23
2022-10-23T09:20:01.945Z,58.18
2022-10-23T09:22:34.381Z,58.57
2022-10-23T09:25:10.674Z,57.72
2022-10-23T09:27:48.635Z,56.44
2022-10-23T09:30:31.730Z,55.84
2022-10-23T09:33:14.865Z,56.17
2022-10-23T09:35:56.814Z,55.38
2022-10-23T09:38:31.599Z,55.22
2022-10-23T09:41:10.695Z,54.80
2022-10-23T09:43:43.428Z,54.61
2022-10-23T09:46:15.810Z,53.35
2022-10-23T09:48:59.824Z,51.56
2022-10-23T09:51:34.666Z,51.98
2022-10-23T09:54:15.312Z,50.09
2022-10-23T09:59:29.310Z,49.04
2022-10-23T10:02:03.945Z,47.05
2022-10-23T10:04:57.421Z,46.64
2022-10-23T10:07:33.330Z,46.87
2022-10-23T10:10:15.380Z,46.68
2022-10-23T10:12:54.812Z,46.80
2022-10-23T10:15:28.624Z,46.51
2022-10-23T10:18:14.244Z,46.69
2022-10-23T10:20:59.125Z,44.94
2022-10-23T10:23:37.934Z,44.92
2022-10-23T10:26:22.372Z,45.54
2022-10-23T10:29:10.302Z,46.93
2022-10-23T10:32:00.460Z,45.58
2022-10-23T10:34:42.886Z,43.94
2022-10-23T10:37:24.703Z,43.48
2022-10-23T10:40:02.989Z,43.20
2022-10-23T10:43:04.612Z,43.03
2022-10-23T10:45:53.260Z,43.73
2022-10-23T10:48:37.251Z,42.57
2022-10-23T10:51:35.174Z,41.93
2022-10-23T10:54:30.375Z,41.67
2022-10-23T10:57:13.039Z,41.21
2022-10-23T10:59:51.437Z,40.64
2022-10-23T11:02:28.128Z,40.91
2022-10-23T11:05:13.823Z,40.69
2022-10-23T11:07:54.721Z,40.07
2022-10-23T11:10:28.027Z,39.77
2022-10-23T11:13:00.449Z,39.30
2022-10-23T11:15:39.355Z,39.81
2022-10-23T11:18:18.523Z,39.96
2022-10-23T11:21:12.396Z,39.13
2022-10-23T11:24:31.975Z,39.51
2022-10-23T11:27:19.554Z,38.26
2022-10-23T11:30:07.988Z,38.26
2022-10-23T11:32:57.746Z,38.32
2022-10-23T11:35:47.511Z,38.65
2022-10-23T11:38:26.120Z,37.37
2022-10-23T11:41:01.885Z,37.06
2022-10-23T11:43:48.153Z,37.76
2022-10-23T11:46:32.019Z,37.26
2022-10-23T11:49:05.806Z,37.71
2022-10-23T11:51:40.048Z,38.27
2022-10-23T11:54:26.413Z,38.82
2022-10-23T11:57:10.957Z,37.53
2022-10-23T11:59:53.446Z,37.36
2022-10-23T12:02:31.234Z,34.67
2022-10-23T12:05:06.755Z,33.88
2022-10-23T12:07:41.772Z,34.07
2022-10-23T12:10:23.319Z,33.40
2022-10-23T12:12:58.853Z,33.96
2022-10-23T12:15:32.158Z,33.12
2022-10-23T12:18:12.998Z,34.46
2022-10-23T12:20:49.799Z,34.03
2022-10-23T12:23:49.118Z,33.92
2022-10-23T12:26:56.890Z,33.37
2022-10-23T12:29:45.041Z,32.49
2022-10-23T12:32:30.939Z,32.13
2022-10-23T12:35:33.110Z,33.08
2022-10-23T12:38:13.613Z,32.91
2022-10-23T12:40:50.470Z,32.95
2022-10-23T12:43:29.953Z,32.77
2022-10-23T12:46:05.286Z,32.87
2022-10-23T12:48:48.195Z,32.83
2022-10-23T12:51:23.530Z,32.59
2022-10-23T12:53:56.803Z,32.74
2022-10-23T12:56:35.580Z,33.07
2022-10-23T12:59:15.566Z,34.13
2022-10-23T13:01:52.449Z,33.50
2022-10-23T13:04:29.243Z,33.65
2022-10-23T13:07:03.219Z,34.63
2022-10-23T13:09:41.302Z,34.73
2022-10-23T13:12:40.927Z,34.18
2022-10-23T13:15:16.801Z,33.89
2022-10-23T13:18:01.878Z,34.04
2022-10-23T13:20:37.361Z,35.03
2022-10-23T13:23:16.058Z,34.98
2022-10-23T13:25:54.319Z,35.51
2022-10-23T13:28:28.945Z,35.94
2022-10-23T13:31:25.475Z,36.23
2022-10-23T13:34:23.140Z,35.72
2022-10-23T13:36:59.595Z,35.14
2022-10-23T13:39:33.790Z,34.76
2022-10-23T13:42:12.014Z,34.06
2022-10-23T13:44:44.370Z,34.41
2022-10-23T13:47:17.428Z,34.22
2022-10-23T13:49:49.732Z,33.96
2022-10-23T13:52:23.197Z,32.98
2022-10-23T13:54:55.615Z,32.32
2022-10-23T13:57:28.082Z,32.15
2022-10-23T14:00:00.362Z,32.82
2022-10-23T14:02:33.485Z,33.05
2022-10-23T14:05:05.974Z,33.12
2022-10-23T14:07:38.399Z,33.62
2022-10-23T14:10:10.730Z,33.89
2022-10-23T14:12:44.296Z,34.58
2022-10-23T14:15:16.959Z,34.18
2022-10-23T14:17:49.994Z,36.11
2022-10-23T14:20:25.652Z,36.80
2022-10-23T14:22:59.494Z,36.61
2022-10-23T14:25:31.787Z,36.38
2022-10-23T14:28:04.576Z,37.00
2022-10-23T14:30:37.438Z,37.16
2022-10-23T14:33:10.442Z,37.09
2022-10-23T14:35:42.769Z,37.58
2022-10-23T14:38:15.136Z,38.55
2022-10-23T14:40:47.442Z,39.15
2022-10-23T14:43:19.915Z,39.08
2022-10-23T14:45:52.238Z,39.63
2022-10-23T14:48:26.593Z,40.28
2022-10-23T14:50:59.083Z,40.33
2022-10-23T14:53:31.598Z,40.88
2022-10-23T14:56:04.352Z,41.13
2022-10-23T14:58:36.723Z,41.25
2022-10-23T15:01:09.902Z,41.15
2022-10-23T15:03:43.198Z,41.56
2022-10-23T15:06:18.278Z,42.37
2022-10-23T15:08:51.486Z,42.50
2022-10-23T15:11:24.583Z,42.96
2022-10-23T15:13:59.031Z,43.38
2022-10-23T15:16:31.458Z,43.96
2022-10-23T15:19:04.591Z,44.31
2022-10-23T15:21:37.956Z,45.22
2022-10-23T15:24:10.294Z,45.66
2022-10-23T15:26:43.388Z,45.32
2022-10-23T15:29:16.029Z,45.87
2022-10-23T15:31:57.996Z,47.22
2022-10-23T15:34:32.087Z,47.51
2022-10-23T15:37:05.020Z,48.27
2022-10-23T15:39:37.519Z,48.56
2022-10-23T15:42:10.334Z,48.57
2022-10-23T15:44:42.673Z,48.69
2022-10-23T15:47:15.059Z,48.93
2022-10-23T15:49:48.130Z,48.90
2022-10-23T15:52:20.503Z,50.03
2022-10-23T15:54:52.931Z,49.88
2022-10-23T15:57:26.404Z,50.23
2022-10-23T15:59:58.751Z,50.99
2022-10-23T16:02:31.121Z,51.62
2022-10-23T16:05:05.045Z,51.09
2022-10-23T16:07:37.382Z,51.91
2022-10-23T16:10:09.972Z,52.00
2022-10-23T16:12:42.632Z,52.51
2022-10-23T16:15:15.354Z,53.20
2022-10-23T16:17:48.174Z,53.66
2022-10-23T16:20:21.227Z,54.44
2022-10-23T16:22:54.298Z,54.78
2022-10-23T16:25:26.695Z,54.87
2022-10-23T16:27:59.243Z,54.80
2022-10-23T16:30:31.766Z,55.37
2022-10-23T16:33:04.048Z,55.71
2022-10-23T16:35:37.165Z,55.88
2022-10-23T16:38:17.919Z,56.18
2022-10-23T16:40:51.663Z,56.46
2022-10-23T16:43:45.667Z,55.91
2022-10-23T16:46:40.934Z,55.80
2022-10-23T16:49:13.792Z,56.64
2022-10-23T16:51:46.803Z,57.71
2022-10-23T16:54:19.112Z,58.44
2022-10-23T16:56:51.452Z,58.83
2022-10-23T16:59:24.059Z,59.17
2022-10-23T17:01:56.520Z,59.47
2022-10-23T17:04:28.927Z,59.90
2022-10-23T17:07:02.040Z,60.05
2022-10-23T17:09:35.046Z,60.09
2022-10-23T17:12:07.797Z,60.30
2022-10-23T17:14:40.136Z,60.30
2022-10-23T17:17:12.926Z,60.55
2022-10-23T17:19:46.457Z,60.79
2022-10-23T17:22:19.739Z,60.94
2022-10-23T17:24:53.178Z,60.93
2022-10-23T17:27:26.515Z,61.03
2022-10-23T17:29:58.857Z,61.50
2022-10-23T17:32:31.215Z,61.66
2022-10-23T17:35:04.653Z,61.87
2022-10-23T17:37:37.722Z,61.94
2022-10-23T17:40:10.778Z,62.30
2022-10-23T17:42:43.452Z,62.35
2022-10-23T17:45:16.014Z,62.74
2022-10-23T17:47:48.367Z,64.00
2022-10-23T17:50:20.676Z,64.81
2022-10-23T17:52:53.682Z,64.85
2022-10-23T17:55:26.091Z,65.42
2022-10-23T17:57:58.900Z,65.28
2022-10-23T18:00:31.518Z,65.58
2022-10-23T18:03:04.642Z,65.64
2022-10-23T18:05:37.052Z,65.70
2022-10-23T18:08:10.070Z,65.69
2022-10-23T18:10:42.410Z,66.18
2022-10-23T18:13:14.783Z,66.26
2022-10-23T18:15:47.071Z,66.74
2022-10-23T18:18:19.444Z,66.95
2022-10-23T18:20:51.835Z,67.10
2022-10-23T18:23:25.049Z,67.71
2022-10-23T18:25:58.629Z,67.77
2022-10-23T18:28:31.770Z,68.85
2022-10-23T18:31:07.771Z,69.08
2022-10-23T18:33:40.500Z,70.45
2022-10-23T18:36:14.712Z,70.39
2022-10-23T18:38:47.959Z,71.51
2022-10-23T18:41:22.925Z,72.02
2022-10-23T18:43:55.295Z,73.13
2022-10-23T18:46:27.883Z,72.61
2022-10-23T18:49:00.384Z,72.77
2022-10-23T18:51:34.978Z,72.54
2022-10-23T18:54:11.039Z,72.77
2022-10-23T18:56:44.220Z,72.36
2022-10-23T18:59:18.661Z,72.44
2022-10-23T19:01:51.213Z,72.24
2022-10-23T19:04:23.656Z,72.33
2022-10-23T19:06:56.167Z,72.40
2022-10-23T19:09:29.153Z,72.54
2022-10-23T19:12:01.739Z,72.99
2022-10-23T19:14:34.185Z,73.10
2022-10-23T19:17:10.724Z,73.28
2022-10-23T19:19:46.609Z,74.01
2022-10-23T19:22:19.032Z,74.12
2022-10-23T19:24:57.282Z,74.34
2022-10-23T19:27:30.264Z,75.45
2022-10-23T19:30:05.806Z,75.10
2022-10-23T19:32:38.122Z,75.51
2022-10-23T19:35:11.681Z,75.41
2022-10-23T19:37:45.657Z,75.61
2022-10-23T19:40:19.165Z,75.46
2022-10-23T19:42:53.503Z,75.46
2022-10-23T19:45:25.914Z,75.40
2022-10-23T19:47:58.270Z,75.29
2022-10-23T19:50:30.603Z,75.15
2022-10-23T19:53:02.973Z,75.09
2022-10-23T19:55:36.059Z,75.43
2022-10-23T19:58:08.361Z,76.18
2022-10-23T20:00:40.732Z,75.78
2022-10-23T20:03:13.208Z,76.25
2022-10-23T20:05:45.595Z,76.90
2022-10-23T20:08:17.914Z,77.90
2022-10-23T20:10:50.974Z,78.28
2022-10-23T20:13:23.573Z,78.34
2022-10-23T20:15:56.199Z,78.55
2022-10-23T20:18:28.515Z,78.75
2022-10-23T20:21:01.885Z,78.59
2022-10-23T20:23:34.213Z,79.09
2022-10-23T20:26:09.187Z,79.58
2022-10-23T20:28:43.605Z,79.71
2022-10-23T20:31:16.618Z,79.74
2022-10-23T20:33:49.442Z,79.58
2022-10-23T20:36:24.826Z,79.55
2022-10-23T20:38:57.991Z,79.46
2022-10-23T20:41:32.566Z,80.31
2022-10-23T20:44:06.522Z,79.69
2022-10-23T20:46:39.027Z,80.84
2022-10-23T20:49:12.583Z,81.94
2022-10-23T20:51:45.382Z,81.81
2022-10-23T20:54:17.677Z,81.67
2022-10-23T20:56:50.744Z,80.63
2022-10-23T20:59:23.118Z,80.37
2022-10-23T21:01:56.631Z,80.75
2022-10-23T21:04:29.223Z,80.67
2022-10-23T21:07:10.412Z,81.04
2022-10-23T21:09:43.951Z,81.53
2022-10-23T21:12:17.336Z,81.47
2022-10-23T21:14:49.661Z,82.53
2022-10-23T21:17:22.085Z,82.90
2022-10-23T21:19:54.471Z,82.57
2022-10-23T21:22:26.827Z,82.38
2022-10-23T21:24:59.885Z,82.92
2022-10-23T21:27:32.892Z,82.72
2022-10-23T21:30:06.591Z,82.88
2022-10-23T21:32:39.593Z,83.19
2022-10-23T21:35:11.906Z,83.08
2022-10-23T21:37:44.409Z,82.66
2022-10-23T21:40:17.066Z,82.79
2022-10-23T21:42:50.127Z,83.07
2022-10-23T21:45:22.455Z,83.21
2022-10-23T21:47:54.823Z,84.10
2022-10-23T21:50:27.246Z,84.52
2022-10-23T21:52:59.588Z,84.67
2022-10-23T21:55:31.980Z,84.81
2022-10-23T21:58:04.991Z,85.19
2022-10-23T22:00:37.345Z,86.32
2022-10-23T22:03:09.651Z,86.20
2022-10-23T22:05:42.074Z,86.36
2022-10-23T22:08:14.451Z,86.49
2022-10-23T22:10:46.866Z,86.43
2022-10-23T22:13:19.879Z,86.65
2022-10-23T22:15:52.227Z,86.10
2022-10-23T22:18:24.663Z,86.68
2022-10-23T22:21:01.268Z,86.28
2022-10-23T22:23:34.533Z,86.23
2022-10-23T22:26:08.440Z,87.02
2022-10-23T22:28:41.429Z,88.80
2022-10-23T22:31:14.680Z,89.17
2022-10-23T22:33:47.616Z,89.01
2022-10-23T22:36:20.678Z,90.17
2022-10-23T22:38:54.007Z,89.71
2022-10-23T22:41:26.374Z,90.20
2022-10-23T22:43:59.854Z,89.85
2022-10-23T22:46:32.247Z,89.66
2022-10-23T22:51:39.037Z,89.06
2022-10-23T22:54:11.501Z,88.99
2022-10-23T22:56:43.799Z,89.07
2022-10-23T22:59:16.883Z,88.46
2022-10-23T23:01:50.568Z,88.70
2022-10-23T23:04:39.154Z,88.78
2022-10-23T23:07:12.561Z,89.69
2022-10-23T23:09:44.954Z,89.25
2022-10-23T23:12:17.286Z,90.69
2022-10-23T23:14:50.253Z,91.24
2022-10-23T23:17:22.567Z,91.38
2022-10-23T23:19:54.938Z,89.64
2022-10-23T23:25:05.203Z,91.48
2022-10-23T23:27:39.534Z,92.11
2022-10-23T23:30:12.767Z,90.67
2022-10-23T23:32:48.075Z,90.12
2022-10-23T23:35:20.690Z,90.16
2022-10-23T23:37:53.009Z,89.57
2022-10-23T23:40:26.075Z,89.30
2022-10-23T23:42:58.508Z,89.45
2022-10-23T23:45:31.922Z,88.85
2022-10-23T23:48:04.581Z,88.81
2022-10-23T23:50:36.904Z,89.02
2022-10-23T23:53:09.508Z,89.58
2022-10-23T23:58:19.118Z,89.11
